createdAt,value
2023-04-02T00:00:20.545Z,2333.00
2023-04-02T00:01:20.579Z,2334.00
2023-04-02T00:02:20.663Z,2328.00
2023-04-02T00:03:20.783Z,2330.00
2023-04-02T00:04:20.617Z,2331.00
2023-04-02T00:05:20.643Z,2333.00
2023-04-02T00:06:20.617Z,2333.00
2023-04-02T00:07:20.637Z,2335.00
2023-04-02T00:08:20.604Z,2333.00
2023-04-02T00:09:20.601Z,2322.00
2023-04-02T00:10:20.595Z,2331.00
2023-04-02T00:11:20.597Z,2326.00
2023-04-02T00:12:20.612Z,2323.00
2023-04-02T00:13:20.606Z,2322.00
2023-04-02T00:14:20.571Z,2323.00
2023-04-02T00:15:20.577Z,2325.00
2023-04-02T00:16:20.581Z,2325.00
2023-04-02T00:17:20.581Z,2328.00
2023-04-02T00:18:20.622Z,2323.00
2023-04-02T00:19:20.578Z,2325.00
2023-04-02T00:20:20.574Z,2326.00
2023-04-02T00:21:20.580Z,2326.00
2023-04-02T00:22:20.557Z,2330.00
2023-04-02T00:23:20.554Z,2323.00
2023-04-02T00:24:20.560Z,2324.00
2023-04-02T00:25:20.554Z,2326.00
2023-04-02T00:26:20.531Z,2324.00
2023-04-02T00:27:20.539Z,2331.00
2023-04-02T00:28:20.525Z,2325.00
2023-04-02T00:29:20.534Z,2323.00
2023-04-02T00:30:20.539Z,2321.00
2023-04-02T00:31:20.532Z,2329.00
2023-04-02T00:32:20.576Z,2312.00
2023-04-02T00:33:20.535Z,2308.00
2023-04-02T00:34:20.534Z,2311.00
2023-04-02T00:35:20.539Z,2320.00
2023-04-02T00:36:20.558Z,2306.00
2023-04-02T00:37:20.534Z,2303.00
2023-04-02T00:38:20.525Z,2305.00
2023-04-02T00:39:20.529Z,2307.00
2023-04-02T00:40:20.526Z,2300.00
2023-04-02T00:41:20.524Z,2295.00
2023-04-02T00:42:20.533Z,2295.00
2023-04-02T00:43:20.527Z,2294.00
2023-04-02T00:44:20.520Z,2290.00
2023-04-02T00:45:20.518Z,2291.00
2023-04-02T00:46:20.599Z,2290.00
2023-04-02T00:47:20.558Z,2286.00
2023-04-02T00:48:21.159Z,2287.00
2023-04-02T00:49:20.640Z,2279.00
2023-04-02T00:50:20.644Z,2281.00
2023-04-02T00:51:20.717Z,2277.00
2023-04-02T00:52:20.698Z,2274.00
2023-04-02T00:53:20.735Z,2271.00
2023-04-02T00:54:20.775Z,2276.00
2023-04-02T00:55:20.809Z,2272.00
2023-04-02T00:56:20.825Z,2273.00
2023-04-02T00:57:20.905Z,2271.00
2023-04-02T00:58:20.892Z,2271.00
2023-04-02T00:59:20.916Z,2272.00
2023-04-02T01:00:20.890Z,2273.00
2023-04-02T01:01:20.916Z,2267.00
2023-04-02T01:02:20.903Z,2272.00
2023-04-02T01:03:20.972Z,2269.00
2023-04-02T01:04:21.085Z,2272.00
2023-04-02T01:05:20.886Z,2272.00
2023-04-02T01:06:20.877Z,2274.00
2023-04-02T01:07:20.877Z,2274.00
2023-04-02T01:08:20.889Z,2277.00
2023-04-02T01:09:20.905Z,2272.00
2023-04-02T01:10:20.872Z,2274.00
2023-04-02T01:11:20.870Z,2275.00
2023-04-02T01:12:20.875Z,2267.00
2023-04-02T01:13:20.874Z,2272.00
2023-04-02T01:14:20.867Z,2273.00
2023-04-02T01:15:20.862Z,2273.00
2023-04-02T01:16:20.964Z,2267.00
2023-04-02T01:17:20.841Z,2275.00
2023-04-02T01:18:20.842Z,2269.00
2023-04-02T01:19:20.836Z,2266.00
2023-04-02T01:20:20.821Z,2262.00
2023-04-02T01:21:20.817Z,2263.00
2023-04-02T01:22:20.810Z,2264.00
2023-04-02T01:23:20.825Z,2266.00
2023-04-02T01:24:20.818Z,2264.00
2023-04-02T01:25:20.822Z,2264.00
2023-04-02T01:26:20.802Z,2272.00
2023-04-02T01:27:20.808Z,2262.00
2023-04-02T01:28:20.797Z,2262.00
2023-04-02T01:29:20.788Z,2263.00
2023-04-02T01:30:20.794Z,2265.00
2023-04-02T01:31:20.817Z,2263.00
2023-04-02T01:32:20.780Z,2259.00
2023-04-02T01:33:20.802Z,2262.00
2023-04-02T01:34:20.807Z,2260.00
2023-04-02T01:35:20.770Z,2258.00
2023-04-02T01:36:20.801Z,2256.00
2023-04-02T01:37:20.770Z,2255.00
2023-04-02T01:38:20.754Z,2243.00
2023-04-02T01:39:20.776Z,2249.00
2023-04-02T01:40:20.767Z,2247.00
2023-04-02T01:41:20.754Z,2242.00
2023-04-02T01:42:20.745Z,2246.00
2023-04-02T01:43:20.745Z,2238.00
2023-04-02T01:44:20.752Z,2239.00
2023-04-02T01:45:20.748Z,2237.00
2023-04-02T01:46:20.749Z,2232.00
2023-04-02T01:47:20.732Z,2232.00
2023-04-02T01:48:20.725Z,2230.00
2023-04-02T01:49:20.738Z,2233.00
2023-04-02T01:50:20.766Z,2221.00
2023-04-02T01:51:20.788Z,2220.00
2023-04-02T01:52:20.808Z,2223.00
2023-04-02T01:53:20.858Z,2224.00
2023-04-02T01:54:20.881Z,2225.00
2023-04-02T01:55:20.912Z,2217.00
2023-04-02T01:56:20.946Z,2213.00
2023-04-02T01:57:21.013Z,2215.00
2023-04-02T01:58:21.022Z,2206.00
2023-04-02T01:59:21.041Z,2212.00
2023-04-02T02:00:21.105Z,2210.00
2023-04-02T02:01:21.193Z,2213.00
2023-04-02T02:02:21.174Z,2199.00
2023-04-02T02:03:21.182Z,2202.00
2023-04-02T02:04:21.190Z,2205.00
2023-04-02T02:05:21.235Z,2198.00
2023-04-02T02:06:21.264Z,2206.00
2023-04-02T02:07:21.297Z,2196.00
2023-04-02T02:08:21.337Z,2193.00
2023-04-02T02:09:21.307Z,2194.00
2023-04-02T02:10:21.308Z,2195.00
2023-04-02T02:11:21.300Z,2197.00
2023-04-02T02:12:21.303Z,2195.00
2023-04-02T02:13:21.305Z,2196.00
2023-04-02T02:14:21.312Z,2200.00
2023-04-02T02:15:21.315Z,2196.00
2023-04-02T02:16:21.335Z,2191.00
2023-04-02T02:17:21.349Z,2187.00
2023-04-02T02:18:21.293Z,2189.00
2023-04-02T02:19:21.297Z,2186.00
2023-04-02T02:20:21.320Z,2185.00
2023-04-02T02:21:21.293Z,2186.00
2023-04-02T02:22:21.296Z,2186.00
2023-04-02T02:23:21.309Z,2189.00
2023-04-02T02:24:21.297Z,2191.00
2023-04-02T02:25:21.320Z,2191.00
2023-04-02T02:26:21.311Z,2195.00
2023-04-02T02:27:21.320Z,2185.00
2023-04-02T02:28:21.315Z,2185.00
2023-04-02T02:29:21.330Z,2178.00
2023-04-02T02:30:21.345Z,2176.00
2023-04-02T02:31:21.351Z,2173.00
2023-04-02T02:32:21.364Z,2168.00
2023-04-02T02:33:21.349Z,2171.00
2023-04-02T02:34:21.344Z,2166.00
2023-04-02T02:35:21.352Z,2173.00
2023-04-02T02:36:21.388Z,2166.00
2023-04-02T02:37:21.364Z,2167.00
2023-04-02T02:38:21.358Z,2168.00
2023-04-02T02:39:21.362Z,2169.00
2023-04-02T02:40:21.369Z,2165.00
2023-04-02T02:41:21.362Z,2171.00
2023-04-02T02:42:21.361Z,2163.00
2023-04-02T02:43:21.389Z,2163.00
2023-04-02T02:44:21.379Z,2163.00
2023-04-02T02:45:21.385Z,2160.00
2023-04-02T02:46:21.462Z,2156.00
2023-04-02T02:47:21.390Z,2153.00
2023-04-02T02:48:21.391Z,2148.00
2023-04-02T02:49:21.384Z,2156.00
2023-04-02T02:50:21.398Z,2148.00
2023-04-02T02:51:21.388Z,2144.00
2023-04-02T02:52:21.412Z,2145.00
2023-04-02T02:53:21.405Z,2149.00
2023-04-02T02:54:21.410Z,2145.00
2023-04-02T02:55:21.418Z,2145.00
2023-04-02T02:56:21.417Z,2140.00
2023-04-02T02:57:21.458Z,2141.00
2023-04-02T02:58:21.430Z,2093.00
2023-04-02T02:59:21.459Z,2054.00
2023-04-02T03:00:21.455Z,2031.00
2023-04-02T03:01:21.487Z,1998.00
2023-04-02T03:02:21.553Z,1956.00
2023-04-02T03:03:21.644Z,1924.00
2023-04-02T03:04:21.527Z,1901.00
2023-04-02T03:05:21.492Z,1867.00
2023-04-02T03:06:21.499Z,1835.00
2023-04-02T03:07:21.500Z,1809.00
2023-04-02T03:08:21.513Z,1779.00
2023-04-02T03:09:21.560Z,1759.00
2023-04-02T03:10:21.549Z,1712.00
2023-04-02T03:11:21.566Z,1679.00
2023-04-02T03:12:21.595Z,1640.00
2023-04-02T03:13:21.577Z,1606.00
2023-04-02T03:14:21.583Z,1581.00
2023-04-02T03:15:21.607Z,1561.00
2023-04-02T03:16:21.651Z,1525.00
2023-04-02T03:17:21.656Z,1495.00
2023-04-02T03:18:21.691Z,1457.00
2023-04-02T03:19:21.730Z,1430.00
2023-04-02T03:20:21.764Z,1397.00
2023-04-02T03:21:21.803Z,1370.00
2023-04-02T03:22:21.833Z,1341.00
2023-04-02T03:23:21.885Z,1307.00
2023-04-02T03:24:21.933Z,1276.00
2023-04-02T03:25:21.989Z,1238.00
2023-04-02T03:26:21.989Z,1235.00
2023-04-02T03:27:22.050Z,1196.00
2023-04-02T03:28:22.084Z,1178.00
2023-04-02T03:29:22.120Z,1142.00
2023-04-02T03:30:22.166Z,1097.00
2023-04-02T03:31:22.225Z,1078.00
2023-04-02T03:32:22.253Z,1050.00
2023-04-02T03:33:22.268Z,1007.00
2023-04-02T03:34:22.331Z,972.00
2023-04-02T03:35:22.355Z,964.00
2023-04-02T03:36:22.445Z,953.00
2023-04-02T03:37:22.445Z,921.00
2023-04-02T03:38:22.476Z,905.00
2023-04-02T03:39:22.532Z,903.00
2023-04-02T03:40:22.581Z,885.00
2023-04-02T03:41:22.615Z,871.00
2023-04-02T03:42:22.654Z,845.00
2023-04-02T03:43:22.709Z,837.00
2023-04-02T03:44:22.733Z,828.00
2023-04-02T03:45:22.783Z,791.00
2023-04-02T03:46:22.886Z,793.00
2023-04-02T03:47:22.913Z,779.00
2023-04-02T03:48:22.939Z,765.00
2023-04-02T03:49:22.999Z,753.00
2023-04-02T03:50:23.050Z,749.00
2023-04-02T03:51:23.113Z,720.00
2023-04-02T03:52:23.175Z,697.00
2023-04-02T03:53:23.226Z,694.00
2023-04-02T03:54:23.292Z,664.00
2023-04-02T03:55:23.370Z,663.00
2023-04-02T03:56:23.368Z,663.00
2023-04-02T03:57:23.417Z,657.00
2023-04-02T03:58:23.381Z,644.00
2023-04-02T03:59:23.389Z,640.00
2023-04-02T04:00:23.394Z,642.00
2023-04-02T04:01:23.407Z,627.00
2023-04-02T04:02:23.487Z,625.00
2023-04-02T04:03:23.414Z,611.00
2023-04-02T04:04:23.482Z,608.00
2023-04-02T04:05:23.439Z,602.00
2023-04-02T04:06:23.445Z,595.00
2023-04-02T04:07:23.453Z,597.00
2023-04-02T04:08:23.469Z,596.00
2023-04-02T04:09:23.533Z,596.00
2023-04-02T04:10:23.597Z,595.00
2023-04-02T04:11:23.721Z,596.00
2023-04-02T04:12:23.719Z,602.00
2023-04-02T04:13:23.784Z,597.00
2023-04-02T04:14:23.856Z,607.00
2023-04-02T04:15:23.929Z,604.00
2023-04-02T04:16:24.059Z,602.00
2023-04-02T04:17:24.078Z,600.00
2023-04-02T04:18:24.177Z,595.00
2023-04-02T04:19:24.238Z,591.00
2023-04-02T04:20:24.311Z,586.00
2023-04-02T04:21:24.378Z,573.00
2023-04-02T04:22:24.465Z,568.00
2023-04-02T04:23:24.533Z,557.00
2023-04-02T04:24:24.628Z,550.00
2023-04-02T04:25:24.677Z,539.00
2023-04-02T04:26:24.865Z,539.00
2023-04-02T04:27:24.835Z,540.00
2023-04-02T04:28:24.905Z,536.00
2023-04-02T04:29:24.989Z,534.00
2023-04-02T04:30:25.074Z,532.00
2023-04-02T04:31:26.044Z,534.00
2023-04-02T04:32:25.235Z,530.00
2023-04-02T04:33:25.382Z,526.00
2023-04-02T04:34:25.385Z,525.00
2023-04-02T04:35:25.455Z,528.00
2023-04-02T04:36:25.532Z,530.00
2023-04-02T04:37:25.614Z,529.00
2023-04-02T04:38:25.679Z,528.00
2023-04-02T04:39:25.753Z,525.00
2023-04-02T04:40:25.841Z,521.00
2023-04-02T04:41:25.925Z,514.00
2023-04-02T04:42:25.983Z,512.00
2023-04-02T04:43:26.058Z,503.00
2023-04-02T04:44:26.143Z,508.00
2023-04-02T04:45:26.194Z,507.00
2023-04-02T04:46:26.311Z,514.00
2023-04-02T04:47:26.271Z,515.00
2023-04-02T04:48:26.270Z,517.00
2023-04-02T04:49:26.295Z,518.00
2023-04-02T04:50:26.286Z,523.00
2023-04-02T04:51:26.306Z,531.00
2023-04-02T04:52:26.307Z,531.00
2023-04-02T04:53:26.316Z,530.00
2023-04-02T04:54:26.344Z,534.00
2023-04-02T04:55:26.351Z,532.00
2023-04-02T04:56:26.423Z,523.00
2023-04-02T04:57:26.557Z,529.00
2023-04-02T04:58:26.526Z,530.00
2023-04-02T04:59:26.589Z,528.00
2023-04-02T05:00:26.631Z,528.00
2023-04-02T05:01:26.727Z,522.00
2023-04-02T05:02:26.826Z,521.00
2023-04-02T05:03:26.842Z,518.00
2023-04-02T05:04:26.918Z,521.00
2023-04-02T05:05:26.903Z,521.00
2023-04-02T05:06:26.926Z,516.00
2023-04-02T05:07:26.915Z,515.00
2023-04-02T05:08:26.959Z,514.00
2023-04-02T05:09:26.934Z,518.00
2023-04-02T05:10:26.954Z,519.00
2023-04-02T05:11:26.960Z,527.00
2023-04-02T05:12:26.970Z,522.00
2023-04-02T05:13:26.977Z,535.00
2023-04-02T05:14:27.000Z,538.00
2023-04-02T05:15:26.989Z,534.00
2023-04-02T05:16:27.022Z,542.00
2023-04-02T05:17:27.034Z,555.00
2023-04-02T05:18:27.004Z,552.00
2023-04-02T05:19:27.022Z,544.00
2023-04-02T05:20:27.037Z,551.00
2023-04-02T05:21:27.049Z,551.00
2023-04-02T05:22:27.081Z,552.00
2023-04-02T05:23:27.076Z,552.00
2023-04-02T05:24:27.088Z,550.00
2023-04-02T05:25:27.115Z,555.00
2023-04-02T05:26:27.079Z,552.00
2023-04-02T05:27:27.097Z,552.00
2023-04-02T05:28:27.114Z,556.00
2023-04-02T05:29:27.126Z,561.00
2023-04-02T05:30:27.139Z,561.00
2023-04-02T05:31:27.177Z,562.00
2023-04-02T05:32:27.174Z,561.00
2023-04-02T05:33:27.190Z,569.00
2023-04-02T05:34:27.182Z,567.00
2023-04-02T05:35:27.180Z,569.00
2023-04-02T05:36:27.225Z,577.00
2023-04-02T05:37:27.218Z,579.00
2023-04-02T05:38:27.217Z,581.00
2023-04-02T05:39:27.227Z,585.00
2023-04-02T05:40:27.236Z,585.00
2023-04-02T05:41:27.263Z,592.00
2023-04-02T05:42:27.273Z,587.00
2023-04-02T05:43:27.260Z,599.00
2023-04-02T05:44:27.288Z,610.00
2023-04-02T05:45:27.278Z,605.00
2023-04-02T05:46:27.376Z,607.00
2023-04-02T05:47:27.351Z,621.00
2023-04-02T05:48:27.321Z,627.00
2023-04-02T05:49:27.322Z,627.00
2023-04-02T05:50:27.335Z,628.00
2023-04-02T05:51:27.355Z,630.00
2023-04-02T05:52:27.377Z,631.00
2023-04-02T05:53:27.383Z,642.00
2023-04-02T05:54:27.367Z,653.00
2023-04-02T05:55:27.364Z,645.00
2023-04-02T05:56:27.387Z,650.00
2023-04-02T05:57:39.867Z,653.00
2023-04-02T05:59:27.488Z,655.00
2023-04-02T06:00:27.514Z,655.00
2023-04-02T06:01:27.522Z,657.00
2023-04-02T06:02:27.643Z,664.00
2023-04-02T06:03:27.692Z,662.00
2023-04-02T06:04:27.560Z,663.00
2023-04-02T06:05:27.574Z,662.00
2023-04-02T06:06:27.594Z,672.00
2023-04-02T06:07:27.625Z,681.00
2023-04-02T06:08:27.625Z,669.00
2023-04-02T06:09:27.705Z,688.00
2023-04-02T06:10:27.695Z,687.00
2023-04-02T06:11:27.698Z,676.00
2023-04-02T06:12:27.732Z,670.00
2023-04-02T06:13:27.739Z,661.00
2023-04-02T06:14:27.802Z,651.00
2023-04-02T06:15:27.797Z,640.00
2023-04-02T06:16:27.847Z,630.00
2023-04-02T06:17:28.001Z,630.00
2023-04-02T06:18:27.977Z,631.00
2023-04-02T06:19:27.971Z,636.00
2023-04-02T06:20:27.907Z,646.00
2023-04-02T06:21:27.978Z,689.00
2023-04-02T06:22:28.009Z,778.00
2023-04-02T06:23:28.002Z,825.00
2023-04-02T06:24:27.951Z,846.00
2023-04-02T06:25:28.001Z,862.00
2023-04-02T06:26:28.054Z,869.00
2023-04-02T06:27:28.033Z,875.00
2023-04-02T06:28:28.053Z,878.00
2023-04-02T06:29:28.078Z,870.00
2023-04-02T06:30:28.073Z,860.00
2023-04-02T06:31:28.021Z,854.00
2023-04-02T06:32:28.108Z,806.00
2023-04-02T06:33:28.093Z,825.00
2023-04-02T06:34:28.011Z,815.00
2023-04-02T06:35:28.161Z,789.00
2023-04-02T06:36:28.095Z,778.00
2023-04-02T06:37:28.149Z,782.00
2023-04-02T06:38:28.153Z,770.00
2023-04-02T06:39:28.239Z,785.00
2023-04-02T06:40:28.262Z,791.00
2023-04-02T06:41:28.293Z,796.00
2023-04-02T06:42:28.368Z,782.00
2023-04-02T06:43:28.411Z,786.00
2023-04-02T06:44:28.430Z,793.00
2023-04-02T06:45:28.533Z,804.00
2023-04-02T06:46:28.595Z,812.00
2023-04-02T06:47:28.613Z,822.00
2023-04-02T06:48:28.649Z,832.00
2023-04-02T06:49:28.686Z,846.00
2023-04-02T06:50:28.727Z,854.00
2023-04-02T06:51:28.756Z,840.00
2023-04-02T06:52:28.758Z,833.00
2023-04-02T06:53:28.776Z,832.00
2023-04-02T06:54:28.809Z,810.00
2023-04-02T06:55:28.871Z,818.00
2023-04-02T06:56:28.849Z,793.00
2023-04-02T06:57:28.907Z,802.00
2023-04-02T06:58:28.913Z,787.00
2023-04-02T06:59:28.907Z,787.00
2023-04-02T07:00:28.923Z,758.00
2023-04-02T07:01:29.027Z,728.00
2023-04-02T07:02:29.089Z,725.00
2023-04-02T07:03:29.053Z,707.00
2023-04-02T07:04:29.150Z,694.00
2023-04-02T07:05:29.199Z,662.00
2023-04-02T07:06:29.295Z,663.00
2023-04-02T07:07:29.360Z,640.00
2023-04-02T07:08:29.464Z,619.00
2023-04-02T07:09:29.495Z,602.00
2023-04-02T07:10:29.588Z,588.00
2023-04-02T07:11:29.643Z,582.00
2023-04-02T07:12:29.749Z,564.00
2023-04-02T07:13:29.810Z,549.00
2023-04-02T07:14:29.880Z,529.00
2023-04-02T07:15:29.951Z,517.00
2023-04-02T07:16:30.072Z,504.00
2023-04-02T07:17:30.155Z,505.00
2023-04-02T07:18:30.177Z,500.00
2023-04-02T07:19:30.228Z,502.00
2023-04-02T07:20:30.311Z,500.00
2023-04-02T07:21:30.384Z,499.00
2023-04-02T07:22:30.387Z,499.00
2023-04-02T07:23:30.387Z,484.00
2023-04-02T07:24:30.399Z,481.00
2023-04-02T07:25:30.411Z,463.00
2023-04-02T07:26:30.418Z,454.00
2023-04-02T07:27:30.422Z,494.00
2023-04-02T07:28:30.440Z,499.00
2023-04-02T07:29:30.437Z,500.00
2023-04-02T07:30:30.438Z,500.00
2023-04-02T07:31:30.618Z,500.00
2023-04-02T07:32:30.655Z,500.00
2023-04-02T07:33:30.698Z,500.00
2023-04-02T07:34:30.718Z,500.00
2023-04-02T07:35:30.771Z,500.00
2023-04-02T07:36:30.843Z,503.00
2023-04-02T07:37:30.898Z,507.00
2023-04-02T07:38:30.976Z,502.00
2023-04-02T07:39:31.034Z,500.00
2023-04-02T07:40:31.089Z,500.00
2023-04-02T07:41:31.157Z,501.00
2023-04-02T07:42:31.168Z,497.00
2023-04-02T07:43:31.160Z,481.00
2023-04-02T07:44:31.166Z,468.00
2023-04-02T07:45:31.156Z,438.00
2023-04-02T07:46:31.216Z,418.00
2023-04-02T07:47:31.230Z,447.00
2023-04-02T07:48:31.169Z,483.00
2023-04-02T07:49:31.182Z,468.00
2023-04-02T07:50:31.173Z,453.00
2023-04-02T07:51:31.173Z,435.00
2023-04-02T07:52:31.175Z,429.00
2023-04-02T07:53:31.192Z,419.00
2023-04-02T07:54:31.187Z,448.00
2023-04-02T07:55:31.187Z,480.00
2023-04-02T07:56:31.188Z,500.00
2023-04-02T07:57:31.308Z,483.00
2023-04-02T07:58:31.267Z,441.00
2023-04-02T07:59:31.192Z,413.00
2023-04-02T08:00:31.198Z,400.00
2023-04-02T08:01:31.202Z,400.00
2023-04-02T08:02:31.316Z,421.00
2023-04-02T08:03:31.372Z,441.00
2023-04-02T08:04:31.224Z,475.00
2023-04-02T08:05:31.226Z,500.00
2023-04-02T08:06:31.231Z,502.00
2023-04-02T08:07:31.256Z,500.00
2023-04-02T08:08:31.243Z,486.00
2023-04-02T08:09:31.257Z,472.00
2023-04-02T08:10:31.256Z,454.00
2023-04-02T08:11:32.027Z,445.00
2023-04-02T08:12:31.287Z,427.00
2023-04-02T08:13:31.284Z,468.00
2023-04-02T08:14:31.273Z,500.00
2023-04-02T08:15:31.268Z,500.00
2023-04-02T08:16:31.286Z,500.00
2023-04-02T08:17:31.371Z,493.00
2023-04-02T08:18:31.292Z,489.00
2023-04-02T08:19:32.675Z,478.00
2023-04-02T08:20:31.287Z,468.00
2023-04-02T08:21:31.275Z,465.00
2023-04-02T08:22:31.273Z,500.00
2023-04-02T08:23:31.296Z,500.00
2023-04-02T08:24:31.327Z,515.00
2023-04-02T08:25:31.357Z,534.00
2023-04-02T08:26:31.388Z,513.00
2023-04-02T08:27:31.408Z,500.00
2023-04-02T08:28:31.435Z,503.00
2023-04-02T08:29:31.449Z,500.00
2023-04-02T08:30:31.551Z,501.00
2023-04-02T08:31:31.488Z,502.00
2023-04-02T08:32:31.539Z,500.00
2023-04-02T08:33:31.532Z,507.00
2023-04-02T08:34:31.552Z,505.00
2023-04-02T08:35:31.593Z,500.00
2023-04-02T08:36:31.599Z,500.00
2023-04-02T08:37:31.626Z,500.00
2023-04-02T08:38:31.630Z,500.00
2023-04-02T08:39:31.672Z,500.00
2023-04-02T08:40:31.667Z,500.00
2023-04-02T08:41:31.669Z,500.00
2023-04-02T08:42:31.683Z,500.00
2023-04-02T08:43:31.707Z,505.00
2023-04-02T08:44:31.705Z,508.00
2023-04-02T08:45:31.717Z,512.00
2023-04-02T08:46:31.922Z,501.00
2023-04-02T08:47:31.794Z,500.00
2023-04-02T08:48:31.765Z,498.00
2023-04-02T08:49:31.764Z,500.00
2023-04-02T08:50:31.754Z,502.00
2023-04-02T08:51:31.747Z,499.00
2023-04-02T08:52:31.754Z,501.00
2023-04-02T08:53:31.750Z,505.00
2023-04-02T08:54:31.765Z,502.00
2023-04-02T08:55:31.773Z,507.00
2023-04-02T08:56:31.782Z,500.00
2023-04-02T08:57:31.878Z,503.00
2023-04-02T08:58:31.768Z,501.00
2023-04-02T08:59:31.814Z,513.00
2023-04-02T09:00:31.790Z,535.00
2023-04-02T09:01:31.845Z,571.00
2023-04-02T09:02:31.986Z,609.00
2023-04-02T09:03:31.802Z,643.00
2023-04-02T09:04:31.854Z,671.00
2023-04-02T09:05:31.829Z,776.00
2023-04-02T09:06:31.828Z,868.00
2023-04-02T09:07:31.824Z,978.00
2023-04-02T09:08:31.835Z,1124.00
2023-04-02T09:09:31.845Z,1250.00
2023-04-02T09:10:31.911Z,1330.00
2023-04-02T09:11:31.981Z,1395.00
2023-04-02T09:12:32.064Z,1477.00
2023-04-02T09:13:32.092Z,1606.00
2023-04-02T09:14:32.156Z,1703.00
2023-04-02T09:15:32.180Z,1756.00
2023-04-02T09:16:32.258Z,1862.00
2023-04-02T09:17:42.686Z,1933.00
2023-04-02T09:18:33.288Z,1935.00
2023-04-02T09:19:32.274Z,1955.00
2023-04-02T09:20:32.258Z,2008.00
2023-04-02T09:21:32.261Z,2101.00
2023-04-02T09:22:32.258Z,2252.00
2023-04-02T09:23:32.259Z,2324.00
2023-04-02T09:24:32.271Z,2386.00
2023-04-02T09:25:32.377Z,2439.00
2023-04-02T09:26:32.279Z,2496.00
2023-04-02T09:27:32.289Z,2549.00
2023-04-02T09:28:32.262Z,2589.00
2023-04-02T09:29:32.267Z,2655.00
2023-04-02T09:30:32.281Z,2657.00
2023-04-02T09:31:32.307Z,2667.00
2023-04-02T09:32:32.271Z,2692.00
2023-04-02T09:33:32.268Z,2756.00
2023-04-02T09:34:32.306Z,2843.00
2023-04-02T09:35:32.292Z,2900.00
2023-04-02T09:36:32.337Z,2928.00
2023-04-02T09:37:32.281Z,2957.00
2023-04-02T09:38:32.280Z,2999.00
2023-04-02T09:39:32.295Z,3000.00
2023-04-02T09:40:32.285Z,3008.00
2023-04-02T09:41:32.298Z,3034.00
2023-04-02T09:42:32.283Z,3082.00
2023-04-02T09:43:32.302Z,3157.00
2023-04-02T09:44:32.301Z,3194.00
2023-04-02T09:45:32.293Z,3217.00
2023-04-02T09:46:32.325Z,3219.00
2023-04-02T09:47:32.297Z,3225.00
2023-04-02T09:48:32.280Z,3244.00
2023-04-02T09:49:32.283Z,3285.00
2023-04-02T09:50:32.268Z,3347.00
2023-04-02T09:51:32.278Z,3364.00
2023-04-02T09:52:32.268Z,3373.00
2023-04-02T09:53:32.266Z,3400.00
2023-04-02T09:54:32.264Z,3416.00
2023-04-02T09:55:32.246Z,3430.00
2023-04-02T09:56:32.290Z,3439.00
2023-04-02T09:57:32.372Z,3463.00
2023-04-02T09:58:32.345Z,3482.00
2023-04-02T09:59:32.375Z,3505.00
2023-04-02T10:00:41.663Z,3521.00
2023-04-02T10:01:33.425Z,3523.00
2023-04-02T10:02:32.407Z,3529.00
2023-04-02T10:03:32.386Z,3545.00
2023-04-02T10:04:32.397Z,3578.00
2023-04-02T10:05:40.580Z,3630.00
2023-04-02T10:06:33.377Z,3526.00
2023-04-02T10:07:32.385Z,3543.00
2023-04-02T10:08:32.371Z,3574.00
2023-04-02T10:09:32.409Z,3625.00
2023-04-02T10:10:32.373Z,3695.00
2023-04-02T10:11:43.808Z,3717.00
2023-04-02T10:12:33.382Z,3718.00
2023-04-02T10:13:32.383Z,3722.00
2023-04-02T10:14:32.390Z,3734.00
2023-04-02T10:15:32.388Z,3748.00
2023-04-02T10:16:32.463Z,3779.00
2023-04-02T10:17:32.434Z,3799.00
2023-04-02T10:18:32.371Z,3790.00
2023-04-02T10:19:32.385Z,3800.00
2023-04-02T10:20:36.354Z,3808.00
2023-04-02T10:21:33.401Z,3809.00
2023-04-02T10:22:32.360Z,3811.00
2023-04-02T10:23:32.356Z,3820.00
2023-04-02T10:24:32.358Z,3837.00
2023-04-02T10:25:32.354Z,3871.00
2023-04-02T10:26:32.343Z,3864.00
2023-04-02T10:27:32.335Z,3883.00
2023-04-02T10:28:32.330Z,3892.00
2023-04-02T10:29:32.318Z,3886.00
2023-04-02T10:30:32.642Z,3896.00
2023-04-02T10:31:32.311Z,3898.00
2023-04-02T10:32:32.361Z,3897.00
2023-04-02T10:33:32.333Z,3926.00
2023-04-02T10:34:32.302Z,3927.00
2023-04-02T10:35:32.337Z,3918.00
2023-04-02T10:36:32.281Z,3925.00
2023-04-02T10:37:32.278Z,3943.00
2023-04-02T10:38:32.270Z,3945.00
2023-04-02T10:39:32.277Z,3951.00
2023-04-02T10:40:32.276Z,3952.00
2023-04-02T10:41:32.248Z,3956.00
2023-04-02T10:42:32.237Z,3956.00
2023-04-02T10:43:32.221Z,3961.00
2023-04-02T10:44:32.221Z,3967.00
2023-04-02T10:45:32.215Z,3970.00
2023-04-02T10:46:32.253Z,3976.00
2023-04-02T10:47:32.227Z,3966.00
2023-04-02T10:48:32.194Z,3955.00
2023-04-02T10:49:32.278Z,3968.00
2023-04-02T10:50:32.170Z,3968.00
2023-04-02T10:51:32.162Z,3965.00
2023-04-02T10:52:32.154Z,3974.00
2023-04-02T10:53:32.155Z,3983.00
2023-04-02T10:54:32.132Z,3955.00
2023-04-02T10:55:32.132Z,3957.00
2023-04-02T10:56:44.122Z,3960.00
2023-04-02T10:57:33.203Z,3958.00
2023-04-02T10:58:32.096Z,3962.00
2023-04-02T10:59:32.106Z,3974.00
2023-04-02T11:00:32.105Z,3987.00
2023-04-02T11:01:32.100Z,4012.00
2023-04-02T11:02:32.204Z,4002.00
2023-04-02T11:03:32.128Z,4005.00
2023-04-02T11:04:32.084Z,4001.00
2023-04-02T11:05:32.055Z,4019.00
2023-04-02T11:06:32.039Z,4002.00
2023-04-02T11:07:32.038Z,4001.00
2023-04-02T11:08:32.029Z,3993.00
2023-04-02T11:09:32.031Z,4010.00
2023-04-02T11:10:32.023Z,4004.00
2023-04-02T11:11:32.028Z,4008.00
2023-04-02T11:12:31.997Z,3997.00
2023-04-02T11:13:31.990Z,4008.00
2023-04-02T11:14:31.986Z,4005.00
2023-04-02T11:15:31.984Z,4002.00
2023-04-02T11:16:32.049Z,4002.00
2023-04-02T11:17:31.967Z,3989.00
2023-04-02T11:18:31.956Z,3989.00
2023-04-02T11:19:31.938Z,3991.00
2023-04-02T11:20:31.946Z,3992.00
2023-04-02T11:21:31.932Z,3998.00
2023-04-02T11:22:31.934Z,4005.00
2023-04-02T11:23:31.929Z,4010.00
2023-04-02T11:24:31.926Z,4004.00
2023-04-02T11:25:31.933Z,4007.00
2023-04-02T11:26:31.920Z,4014.00
2023-04-02T11:27:31.939Z,4013.00
2023-04-02T11:28:31.925Z,4010.00
2023-04-02T11:29:31.911Z,4004.00
2023-04-02T11:30:31.910Z,4011.00
2023-04-02T11:31:31.955Z,4015.00
2023-04-02T11:32:31.919Z,4008.00
2023-04-02T11:33:38.345Z,4008.00
2023-04-02T11:34:32.887Z,4008.00
2023-04-02T11:35:31.952Z,4011.00
2023-04-02T11:36:31.873Z,4013.00
2023-04-02T11:37:31.861Z,4010.00
2023-04-02T11:38:31.856Z,4011.00
2023-04-02T11:39:31.844Z,4010.00
2023-04-02T11:40:31.845Z,4016.00
2023-04-02T11:41:31.825Z,4018.00
2023-04-02T11:42:31.826Z,4007.00
2023-04-02T11:43:31.814Z,4013.00
2023-04-02T11:44:31.817Z,4024.00
2023-04-02T11:45:35.526Z,4011.00
2023-04-02T11:46:32.849Z,4012.00
2023-04-02T11:47:31.830Z,4015.00
2023-04-02T11:48:31.810Z,4019.00
2023-04-02T11:49:31.800Z,4026.00
2023-04-02T11:50:31.793Z,4028.00
2023-04-02T11:51:31.799Z,4037.00
2023-04-02T11:52:31.800Z,4028.00
2023-04-02T11:53:31.799Z,4029.00
2023-04-02T11:54:31.782Z,4029.00
2023-04-02T11:55:31.788Z,4038.00
2023-04-02T11:56:31.788Z,4035.00
2023-04-02T11:57:31.855Z,4042.00
2023-04-02T11:58:31.766Z,4046.00
2023-04-02T11:59:31.765Z,4047.00
2023-04-02T12:00:31.756Z,4048.00
2023-04-02T12:01:31.788Z,4048.00
2023-04-02T12:02:31.875Z,4048.00
2023-04-02T12:03:31.763Z,4053.00
2023-04-02T12:04:31.751Z,4048.00
2023-04-02T12:05:31.795Z,4049.00
2023-04-02T12:06:31.750Z,4047.00
2023-04-02T12:07:31.729Z,4047.00
2023-04-02T12:08:31.732Z,4049.00
2023-04-02T12:09:31.740Z,4042.00
2023-04-02T12:10:31.775Z,4051.00
2023-04-02T12:11:31.743Z,4041.00
2023-04-02T12:12:31.735Z,4036.00
2023-04-02T12:13:31.736Z,4043.00
2023-04-02T12:14:31.724Z,4031.00
2023-04-02T12:15:31.723Z,4036.00
2023-04-02T12:16:31.741Z,4031.00